Time;durP1;ratioP1;P1;durP2;ratioP2;P2;SDS_P1;SDS_P2;PMS_P1;PMS_P2;Temp;Humidity;BMP_temperature;BMP_pressure;BME280_temperature;BME280_humidity;BME280_pressure;Samples;Min_cycle;Max_cycle;Signal;HPM_P1;HPM_P2
2022/02/05 06:01:59;;;;;;;3.92;1.70;;;3.50;99.90;;;;;;5234531;23;20076;-76
2022/02/05 06:04:26;;;;;;;3.75;1.83;;;3.50;99.90;;;;;;4919081;29;20128;-74
2022/02/05 06:06:53;;;;;;;6.43;2.05;;;3.50;99.90;;;;;;4918655;29;20052;-77
2022/02/05 06:09:20;;;;;;;6.50;2.00;;;3.50;99.90;;;;;;4918697;29;20044;-76
2022/02/05 06:11:49;;;;;;;5.63;1.95;;;3.50;99.90;;;;;;4919105;29;20127;-74
2022/02/05 06:14:21;;;;;;;4.57;1.73;;;3.50;99.90;;;;;;4918976;29;20052;-76
2022/02/05 06:16:52;;;;;;;4.47;1.70;;;3.50;99.90;;;;;;4919014;29;20048;-76
2022/02/05 06:19:21;;;;;;;5.70;2.10;;;3.40;99.90;;;;;;4919530;29;20135;-75
2022/02/05 06:21:48;;;;;;;4.97;1.83;;;3.40;99.90;;;;;;4919055;29;20052;-75
2022/02/05 06:24:15;;;;;;;4.25;1.50;;;3.40;99.90;;;;;;4915992;29;20091;-76
2022/02/05 06:26:42;;;;;;;6.22;1.83;;;3.40;99.90;;;;;;4910079;29;20131;-75
2022/02/05 06:29:09;;;;;;;7.32;2.00;;;3.40;99.90;;;;;;4899289;29;20128;-74
2022/02/05 06:31:36;;;;;;;4.68;1.80;;;3.40;99.90;;;;;;4899320;29;20535;-75
2022/02/05 06:34:04;;;;;;;4.10;1.83;;;3.40;99.90;;;;;;4905944;29;20044;-74
2022/02/05 06:36:32;;;;;;;5.85;1.80;;;3.40;99.90;;;;;;4918340;29;20139;-76
2022/02/05 06:38:59;;;;;;;5.32;1.55;;;3.40;99.90;;;;;;4918377;29;20131;-74
2022/02/05 06:41:26;;;;;;;3.95;1.73;;;3.40;99.90;;;;;;4918418;29;20048;-74
2022/02/05 06:43:53;;;;;;;4.07;1.75;;;3.50;99.70;;;;;;4914832;29;20135;-77
2022/02/05 06:46:23;;;;;;;5.35;1.52;;;3.50;99.60;;;;;;4909470;29;20048;-74
2022/02/05 06:48:50;;;;;;;7.85;2.05;;;3.50;99.50;;;;;;4903072;29;20135;-75
2022/02/05 06:51:17;;;;;;;3.95;1.40;;;3.50;99.40;;;;;;4917664;29;20516;-75
2022/02/05 06:53:46;;;;;;;6.88;1.60;;;3.50;99.50;;;;;;4918246;29;20052;-75
2022/02/05 06:56:13;;;;;;;7.45;2.28;;;3.50;99.30;;;;;;4917898;29;20059;-77
2022/02/05 06:58:40;;;;;;;4.90;1.75;;;3.50;99.30;;;;;;4917019;29;20052;-74
2022/02/05 07:01:07;;;;;;;4.15;1.77;;;3.50;99.30;;;;;;4918032;29;20107;-75
2022/02/05 07:03:34;;;;;;;5.13;1.52;;;3.50;99.20;;;;;;4904988;29;20257;-75
2022/02/05 07:06:01;;;;;;;6.38;2.10;;;3.50;99.20;;;;;;4917355;29;20472;-75
2022/02/05 07:08:28;;;;;;;3.83;1.50;;;3.50;99.10;;;;;;4907082;29;20040;-75
2022/02/05 07:10:57;;;;;;;5.07;1.67;;;3.50;99.00;;;;;;4905362;29;20135;-78
2022/02/05 07:13:24;;;;;;;4.07;1.50;;;3.50;99.00;;;;;;4902355;29;20403;-75
2022/02/05 07:15:57;;;;;;;4.70;1.50;;;3.50;98.90;;;;;;4914526;29;20084;-74
2022/02/05 07:18:33;;;;;;;5.25;1.55;;;3.50;98.80;;;;;;4917052;29;20052;-74
2022/02/05 07:21:04;;;;;;;5.57;1.58;;;3.50;98.80;;;;;;4917293;29;20044;-75
2022/02/05 07:29:13;;;;;;;4.20;1.20;;;3.50;98.80;;;;;;4905285;29;20051;-75
2022/02/05 07:31:44;;;;;;;3.58;1.30;;;3.50;98.80;;;;;;4898291;29;20054;-75
2022/02/05 07:34:13;;;;;;;5.07;1.45;;;3.50;98.80;;;;;;4898765;29;20140;-77
2022/02/05 07:36:40;;;;;;;3.45;1.35;;;3.50;98.70;;;;;;4906939;29;20048;-77
2022/02/05 07:39:09;;;;;;;4.75;1.40;;;3.50;98.70;;;;;;4914843;29;20153;-74
2022/02/05 07:41:40;;;;;;;3.92;1.33;;;3.50;98.70;;;;;;4910244;29;20052;-75
2022/02/05 07:44:11;;;;;;;4.43;1.70;;;3.50;98.70;;;;;;4916793;29;20614;-75
2022/02/05 07:46:39;;;;;;;5.38;1.80;;;3.50;98.70;;;;;;4915585;29;20394;-74
2022/02/05 07:49:06;;;;;;;4.50;1.45;;;3.50;98.60;;;;;;4913629;29;20075;-75
2022/02/05 07:51:33;;;;;;;5.55;1.38;;;3.50;98.70;;;;;;4917202;29;20048;-74
2022/02/05 07:54:00;;;;;;;3.20;1.38;;;3.50;98.80;;;;;;4916280;29;20054;-74
2022/02/05 07:56:28;;;;;;;5.47;1.60;;;3.50;98.60;;;;;;4916758;29;20056;-74
2022/02/05 07:58:56;;;;;;;4.20;1.52;;;3.60;98.70;;;;;;4916753;29;20507;-75
2022/02/05 08:01:23;;;;;;;4.65;1.40;;;3.60;98.60;;;;;;4916720;29;20127;-75
2022/02/05 08:03:50;;;;;;;4.10;1.45;;;3.60;98.50;;;;;;4915256;29;20143;-73
2022/02/05 08:06:17;;;;;;;4.10;1.30;;;3.60;98.50;;;;;;4913443;29;20405;-75
2022/02/05 08:08:48;;;;;;;4.72;1.30;;;3.70;98.50;;;;;;4916926;29;20052;-75
2022/02/05 08:11:19;;;;;;;6.05;1.65;;;3.70;98.30;;;;;;4916879;29;20147;-75
2022/02/05 08:13:49;;;;;;;6.00;1.50;;;3.80;98.20;;;;;;4917396;29;20052;-75
2022/02/05 08:18:59;;;;;;;3.53;1.30;;;3.80;98.30;;;;;;4911051;29;20048;-74
2022/02/05 08:21:26;;;;;;;4.63;1.67;;;3.80;98.10;;;;;;4907373;29;20040;-74
2022/02/05 08:23:53;;;;;;;3.83;1.40;;;3.90;98.00;;;;;;4916438;29;20056;-75
2022/02/05 08:26:26;;;;;;;4.57;1.55;;;3.90;98.10;;;;;;4917132;29;20083;-74
2022/02/05 08:28:53;;;;;;;2.63;1.02;;;4.00;98.10;;;;;;4916773;29;20053;-75
2022/02/05 08:31:22;;;;;;;4.93;1.42;;;4.00;97.90;;;;;;4916617;29;20131;-75
2022/02/05 08:33:49;;;;;;;4.70;1.35;;;4.10;97.60;;;;;;4916839;29;20127;-75
2022/02/05 08:36:21;;;;;;;3.97;1.30;;;4.10;97.60;;;;;;4916509;29;20080;-76
2022/02/05 08:38:48;;;;;;;3.92;1.50;;;4.10;97.40;;;;;;4916803;29;20047;-76
2022/02/05 08:41:16;;;;;;;4.28;1.17;;;4.20;97.50;;;;;;4913788;29;20538;-75
2022/02/05 08:43:43;;;;;;;4.03;1.27;;;4.20;97.30;;;;;;4912186;29;20138;-74
2022/02/05 08:46:10;;;;;;;6.38;1.50;;;4.20;97.40;;;;;;4916181;29;20056;-74
2022/02/05 08:48:39;;;;;;;5.70;1.30;;;4.20;97.30;;;;;;4926066;29;20086;-75
2022/02/05 08:51:07;;;;;;;5.35;1.60;;;4.20;97.20;;;;;;4915961;29;20120;-74
2022/02/05 08:53:35;;;;;;;5.65;1.70;;;4.20;97.20;;;;;;4913887;29;20184;-76
2022/02/05 08:56:02;;;;;;;4.95;1.40;;;4.20;97.30;;;;;;4913524;29;20147;-74
2022/02/05 08:58:29;;;;;;;4.35;1.30;;;4.20;97.40;;;;;;4916479;29;20082;-75
2022/02/05 09:01:08;;;;;;;6.25;1.40;;;4.30;97.30;;;;;;4914163;29;20139;-75
2022/02/05 09:03:41;;;;;;;5.15;1.75;;;4.30;97.30;;;;;;4915299;29;20123;-74
2022/02/05 09:06:10;;;;;;;3.97;1.27;;;4.30;97.20;;;;;;4916622;29;20048;-75
2022/02/05 09:08:43;;;;;;;4.25;1.40;;;4.30;97.10;;;;;;4916678;29;20062;-76
2022/02/05 09:11:17;;;;;;;4.72;1.58;;;4.30;97.00;;;;;;4916301;29;20421;-74
2022/02/05 09:14:09;;;;;;;6.35;1.50;;;4.30;97.40;;;;;;4915243;29;20462;-73
2022/02/05 09:16:37;;;;;;;3.53;1.10;;;4.40;97.20;;;;;;4916562;29;20062;-75
2022/02/05 09:19:04;;;;;;;5.15;1.33;;;4.40;97.30;;;;;;4916394;29;20045;-74
2022/02/05 09:21:33;;;;;;;4.13;1.52;;;4.40;97.00;;;;;;4916497;29;20413;-75
2022/02/05 09:24:02;;;;;;;5.97;1.50;;;4.50;96.80;;;;;;4919231;29;20044;-80
2022/02/05 09:26:31;;;;;;;3.00;1.20;;;4.50;96.80;;;;;;4919584;29;20092;-74
2022/02/05 09:29:03;;;;;;;4.75;1.25;;;4.60;97.10;;;;;;4920245;29;20056;-75
2022/02/05 09:31:34;;;;;;;5.88;1.58;;;4.60;96.70;;;;;;4920215;29;20498;-78
2022/02/05 09:34:04;;;;;;;5.07;1.45;;;4.60;96.40;;;;;;4919906;29;20443;-77
2022/02/05 09:36:39;;;;;;;3.90;1.10;;;4.60;96.50;;;;;;4918812;29;20486;-74
2022/02/05 09:39:07;;;;;;;6.60;1.63;;;4.70;96.50;;;;;;4919301;29;20044;-79
2022/02/05 09:41:35;;;;;;;3.88;1.35;;;4.80;96.40;;;;;;4915680;29;20047;-79
2022/02/05 09:44:02;;;;;;;5.05;1.20;;;4.80;96.10;;;;;;4912110;29;20138;-80
2022/02/05 09:46:29;;;;;;;4.03;1.20;;;4.90;96.00;;;;;;4919563;29;20131;-80
2022/02/05 09:48:57;;;;;;;4.18;1.20;;;5.00;96.00;;;;;;4920136;29;20044;-76
2022/02/05 09:51:30;;;;;;;5.50;1.30;;;5.00;95.90;;;;;;4911050;29;20045;-76
2022/02/05 09:54:01;;;;;;;5.70;1.10;;;5.00;95.80;;;;;;4912002;29;20054;-77
2022/02/05 09:56:31;;;;;;;3.28;1.10;;;5.10;95.60;;;;;;4917574;29;20076;-80
2022/02/05 09:58:59;;;;;;;5.97;1.17;;;5.20;95.20;;;;;;4919992;29;20134;-79
2022/02/05 10:01:29;;;;;;;5.22;1.30;;;5.20;95.10;;;;;;4919430;29;20134;-78
2022/02/05 10:03:57;;;;;;;4.32;1.23;;;5.30;94.90;;;;;;4919255;29;20052;-79
2022/02/05 10:06:28;;;;;;;5.85;1.30;;;5.30;94.90;;;;;;4919528;29;20048;-81
2022/02/05 10:09:00;;;;;;;5.22;1.50;;;5.40;94.80;;;;;;4918649;29;20080;-79
2022/02/05 10:11:30;;;;;;;7.63;1.33;;;5.50;94.50;;;;;;4915619;29;20486;-75
2022/02/05 10:14:12;;;;;;;3.50;1.27;;;5.50;94.60;;;;;;4918447;29;20052;-75
2022/02/05 10:16:40;;;;;;;5.05;1.50;;;5.60;94.20;;;;;;4919163;29;20052;-76
2022/02/05 10:19:08;;;;;;;6.80;1.40;;;5.60;94.20;;;;;;4918604;29;20059;-75
2022/02/05 10:21:38;;;;;;;6.85;1.33;;;5.60;94.40;;;;;;4919079;29;20099;-78
2022/02/05 10:24:09;;;;;;;4.47;1.30;;;5.70;94.20;;;;;;4918924;29;20140;-76
2022/02/05 10:26:40;;;;;;;6.07;1.48;;;5.80;93.70;;;;;;4917991;29;20471;-75
2022/02/05 10:29:10;;;;;;;7.25;1.60;;;5.80;93.50;;;;;;4918697;29;20142;-75
2022/02/05 10:32:03;;;;;;;6.72;1.27;;;5.80;93.70;;;;;;4918567;29;20087;-75
2022/02/05 10:34:36;;;;;;;4.10;1.30;;;5.90;93.80;;;;;;4899633;29;20056;-78
2022/02/05 10:37:13;;;;;;;4.53;1.23;;;6.00;93.70;;;;;;4912686;29;20056;-79
2022/02/05 10:45:37;;;;;;;4.70;1.23;;;6.10;92.40;;;;;;4912284;29;20051;-74
2022/02/05 10:48:06;;;;;;;6.13;1.30;;;6.10;92.60;;;;;;4918495;29;20150;-77
2022/02/05 10:50:35;;;;;;;5.60;1.40;;;6.10;92.60;;;;;;4918137;29;20051;-75
2022/02/05 10:53:09;;;;;;;7.40;1.20;;;6.10;92.40;;;;;;4918227;29;20478;-76
2022/02/05 10:55:58;;;;;;;5.18;1.20;;;6.20;92.70;;;;;;4903327;29;20459;-77
2022/02/05 10:58:42;;;;;;;8.40;3.72;;;6.20;92.60;;;;;;4899870;29;20383;-76
2022/02/05 11:07:02;;;;;;;4.25;1.15;;;6.50;92.10;;;;;;4918911;29;20063;-81
2022/02/05 11:09:29;;;;;;;4.43;1.02;;;6.50;91.00;;;;;;4921547;29;20044;-79
2022/02/05 11:15:03;;;;;;;4.78;1.08;;;6.50;91.20;;;;;;4917612;29;20112;-78
2022/02/05 11:20:32;;;;;;;4.22;1.13;;;6.60;91.30;;;;;;4898809;29;20395;-75
2022/02/05 11:23:02;;;;;;;5.40;1.15;;;6.70;91.50;;;;;;4913282;29;20048;-74
2022/02/05 11:25:34;;;;;;;5.13;0.95;;;6.70;91.20;;;;;;4917805;29;20048;-75
2022/02/05 11:28:02;;;;;;;4.28;1.05;;;6.80;90.00;;;;;;4918063;29;20280;-75
2022/02/05 11:30:43;;;;;;;4.53;0.93;;;6.70;89.60;;;;;;4917875;29;20138;-74
2022/02/05 11:33:24;;;;;;;4.80;1.08;;;6.70;89.00;;;;;;4917889;29;20519;-76
2022/02/05 11:36:39;;;;;;;3.58;0.93;;;6.70;90.60;;;;;;4917920;29;20052;-76
2022/02/05 11:39:03;;;;;;;3.47;0.90;;;6.70;90.30;;;;;;4917674;29;20055;-75
2022/02/05 11:41:34;;;;;;;5.22;0.98;;;6.70;89.70;;;;;;4917611;29;20044;-74
2022/02/05 11:44:23;;;;;;;4.32;1.00;;;6.70;89.40;;;;;;4917421;29;20456;-77
2022/02/05 11:47:25;;;;;;;26.88;12.00;;;6.90;90.20;;;;;;4901233;29;20048;-74
2022/02/05 11:50:18;;;;;;;8.30;3.40;;;7.00;89.60;;;;;;4916006;29;20051;-74
2022/02/05 11:53:09;;;;;;;8.95;3.53;;;7.10;88.30;;;;;;4917461;29;20134;-74
2022/02/05 11:55:46;;;;;;;19.48;7.90;;;7.20;86.80;;;;;;4915492;29;20052;-73
2022/02/05 11:58:16;;;;;;;4.80;1.48;;;7.30;86.90;;;;;;4917037;29;20055;-75
2022/02/05 12:00:56;;;;;;;6.05;1.48;;;7.40;85.20;;;;;;4906195;29;20144;-74
2022/02/05 12:03:35;;;;;;;7.65;1.92;;;7.40;82.20;;;;;;4917190;29;20048;-75
2022/02/05 12:06:12;;;;;;;5.82;1.20;;;7.40;83.00;;;;;;4917310;29;20048;-75
2022/02/05 12:08:44;;;;;;;6.03;1.13;;;7.40;81.40;;;;;;4917242;29;20067;-74
2022/02/05 12:11:34;;;;;;;6.00;1.20;;;7.40;80.70;;;;;;4914992;29;20498;-74
2022/02/05 12:14:10;;;;;;;5.63;1.30;;;7.40;81.10;;;;;;4916614;29;20502;-74
2022/02/05 12:16:39;;;;;;;3.38;0.93;;;7.40;83.30;;;;;;4910097;29;20520;-74
2022/02/05 12:19:15;;;;;;;4.30;1.08;;;7.50;83.80;;;;;;4905745;29;20055;-74
2022/02/05 12:21:59;;;;;;;4.93;1.02;;;7.60;83.50;;;;;;4923256;29;20048;-77
2022/02/05 12:24:38;;;;;;;5.82;1.35;;;7.70;80.90;;;;;;4916283;29;20044;-74
2022/02/05 12:27:33;;;;;;;4.10;1.05;;;7.70;80.30;;;;;;4912272;29;20048;-74
2022/02/05 12:30:37;;;;;;;4.05;0.88;;;7.80;80.50;;;;;;4913415;29;20067;-74
2022/02/05 12:33:08;;;;;;;4.25;0.95;;;8.00;78.90;;;;;;4916450;29;20462;-73
2022/02/05 12:35:37;;;;;;;4.88;1.10;;;8.00;78.40;;;;;;4916738;29;20410;-73
2022/02/05 12:38:07;;;;;;;4.88;1.25;;;8.20;78.90;;;;;;4916447;29;20138;-74
2022/02/05 12:40:44;;;;;;;3.97;1.00;;;8.30;77.50;;;;;;4917197;29;20138;-76
2022/02/05 12:43:13;;;;;;;5.47;0.95;;;8.40;77.60;;;;;;4917156;29;20055;-74
2022/02/05 12:45:53;;;;;;;4.88;1.13;;;8.50;76.90;;;;;;4916816;29;20479;-76
2022/02/05 12:48:26;;;;;;;5.32;1.60;;;8.70;76.40;;;;;;4915723;29;20052;-76
2022/02/05 12:50:57;;;;;;;5.18;0.98;;;8.80;73.60;;;;;;4916890;29;20049;-75
2022/02/05 12:53:31;;;;;;;4.90;1.00;;;8.80;73.80;;;;;;4916435;29;20131;-76
2022/02/05 12:56:12;;;;;;;3.75;1.00;;;8.80;73.00;;;;;;4916634;29;20048;-74
2022/02/05 12:58:57;;;;;;;5.05;1.15;;;8.80;72.70;;;;;;4919982;29;20562;-76
2022/02/05 13:01:25;;;;;;;4.22;1.20;;;8.80;72.10;;;;;;4920159;29;20409;-75
2022/02/05 13:04:10;;;;;;;2.90;0.90;;;8.80;70.20;;;;;;4920308;29;20051;-76
2022/02/05 13:06:37;;;;;;;4.68;1.25;;;8.80;69.70;;;;;;4920276;29;20147;-74
2022/02/05 13:09:18;;;;;;;4.20;1.08;;;8.80;70.60;;;;;;4920256;29;20048;-77
2022/02/05 13:11:45;;;;;;;4.72;1.20;;;8.90;70.30;;;;;;4920514;29;20079;-76
2022/02/05 13:14:12;;;;;;;4.78;1.20;;;9.20;70.90;;;;;;4920145;29;20131;-76
2022/02/05 13:16:41;;;;;;;5.78;1.38;;;9.30;70.60;;;;;;4920235;29;20047;-77
2022/02/05 13:19:24;;;;;;;3.90;1.20;;;9.40;70.00;;;;;;4920261;29;20056;-77
2022/02/05 13:27:50;;;;;;;3.65;1.23;;;9.60;68.90;;;;;;4922775;29;20052;-75
2022/02/05 13:36:01;;;;;;;4.13;1.00;;;10.10;66.10;;;;;;4920718;29;20087;-75
2022/02/05 13:38:33;;;;;;;2.80;0.80;;;10.30;63.30;;;;;;4919500;29;20155;-77
2022/02/05 13:41:01;;;;;;;4.95;1.38;;;10.30;62.80;;;;;;4919697;29;20048;-77
2022/02/05 13:43:40;;;;;;;3.38;0.90;;;10.10;62.80;;;;;;4920046;29;20052;-75
2022/02/05 13:46:13;;;;;;;3.53;1.05;;;9.90;63.80;;;;;;4919710;29;20048;-76
2022/02/05 13:48:40;;;;;;;3.75;1.00;;;10.70;63.90;;;;;;4919773;29;20553;-77
2022/02/05 13:51:10;;;;;;;5.05;1.00;;;12.10;59.80;;;;;;4920012;29;20143;-76
2022/02/05 13:53:53;;;;;;;4.75;1.13;;;13.70;56.20;;;;;;4919756;29;20150;-76
2022/02/05 13:56:21;;;;;;;3.40;0.85;;;15.00;51.20;;;;;;4919332;29;20139;-76
2022/02/05 13:58:49;;;;;;;4.07;1.00;;;16.30;48.10;;;;;;4919561;29;20100;-77
2022/02/05 14:01:30;;;;;;;3.42;0.77;;;17.50;45.90;;;;;;4919132;29;20506;-76
2022/02/05 14:03:58;;;;;;;3.58;0.90;;;18.90;43.20;;;;;;4919701;29;20154;-76
2022/02/05 14:06:26;;;;;;;4.28;0.80;;;19.80;41.50;;;;;;4919857;29;20573;-76
2022/02/05 14:08:55;;;;;;;3.08;1.05;;;20.70;40.40;;;;;;4919378;29;20082;-75
2022/02/05 14:11:28;;;;;;;3.83;0.85;;;21.50;39.50;;;;;;4919102;29;20395;-76
2022/02/05 14:13:58;;;;;;;3.45;0.73;;;21.60;37.90;;;;;;4919113;29;20044;-76
2022/02/05 14:16:39;;;;;;;2.90;0.82;;;21.60;37.30;;;;;;4919545;29;20055;-76
2022/02/05 14:19:07;;;;;;;3.05;1.05;;;22.00;36.40;;;;;;4919606;29;20140;-75
2022/02/05 14:21:39;;;;;;;4.53;1.08;;;22.10;35.80;;;;;;4919315;29;20516;-77
2022/02/05 14:24:14;;;;;;;5.07;1.23;;;21.90;35.70;;;;;;4919258;29;20056;-75
2022/02/05 14:26:52;;;;;;;3.63;1.00;;;22.00;35.50;;;;;;4918477;29;20135;-76
2022/02/05 14:29:19;;;;;;;3.42;0.93;;;22.10;35.80;;;;;;4918350;29;20059;-77
2022/02/05 14:31:54;;;;;;;4.40;1.13;;;22.20;34.50;;;;;;4918027;29;20135;-77
2022/02/05 14:34:27;;;;;;;4.13;1.25;;;22.30;35.00;;;;;;4919094;29;20063;-74
2022/02/05 14:42:32;;;;;;;4.97;1.10;;;20.10;35.70;;;;;;4912685;29;20059;-74
2022/02/05 14:45:02;;;;;;;3.85;0.90;;;18.50;38.40;;;;;;4900129;29;20070;-75
2022/02/05 14:47:29;;;;;;;3.38;1.00;;;18.70;39.10;;;;;;4900693;29;20049;-74
2022/02/05 14:49:56;;;;;;;4.72;1.17;;;19.00;38.90;;;;;;4899580;29;20189;-75
2022/02/05 14:52:24;;;;;;;3.03;1.00;;;19.40;38.70;;;;;;4903996;29;20051;-76
2022/02/05 14:54:52;;;;;;;3.78;1.02;;;18.30;39.10;;;;;;4910043;29;20087;-74
2022/02/05 14:57:19;;;;;;;2.88;0.98;;;17.30;40.70;;;;;;4917947;29;20052;-76
2022/02/05 14:59:47;;;;;;;2.78;0.80;;;17.80;40.90;;;;;;4918281;29;20510;-74
2022/02/05 15:02:14;;;;;;;3.30;0.82;;;17.50;40.60;;;;;;4918337;29;20120;-76
2022/02/05 15:04:42;;;;;;;2.75;1.10;;;16.20;41.90;;;;;;4917684;29;20569;-73
2022/02/05 15:07:10;;;;;;;3.67;1.02;;;15.00;43.60;;;;;;4918587;29;20074;-75
2022/02/05 15:09:39;;;;;;;4.03;1.10;;;14.00;45.40;;;;;;4917768;29;20056;-74
2022/02/05 15:12:07;;;;;;;3.42;0.85;;;13.20;47.10;;;;;;4917683;29;20050;-76
2022/02/05 15:14:34;;;;;;;4.03;0.93;;;13.90;47.60;;;;;;4917678;29;20054;-76
2022/02/05 15:17:03;;;;;;;4.82;1.25;;;15.70;45.70;;;;;;4918233;29;20070;-74
2022/02/05 15:19:30;;;;;;;4.43;1.38;;;17.50;42.80;;;;;;4917614;29;20055;-76
2022/02/05 15:21:57;;;;;;;5.35;1.30;;;18.70;44.50;;;;;;4919492;29;20494;-75
2022/02/05 15:24:24;;;;;;;6.90;3.53;;;19.40;39.40;;;;;;4917449;29;20111;-75
2022/02/05 15:26:53;;;;;;;6.45;2.80;;;19.90;38.00;;;;;;4912050;29;20131;-73
2022/02/05 15:29:20;;;;;;;20.80;10.23;;;19.80;37.40;;;;;;4917251;29;20407;-76
2022/02/05 15:31:48;;;;;;;4.95;1.80;;;19.50;38.00;;;;;;4916865;29;20044;-75
2022/02/05 15:34:16;;;;;;;3.97;0.90;;;19.30;38.40;;;;;;4917198;29;20131;-76
2022/02/05 15:36:51;;;;;;;3.42;0.82;;;19.50;38.20;;;;;;4916623;29;20143;-76
2022/02/05 15:39:44;;;;;;;2.80;0.90;;;19.40;37.80;;;;;;4914956;29;20383;-74
2022/02/05 15:45:00;;;;;;;3.65;0.90;;;19.60;38.20;;;;;;4916590;29;20055;-76
2022/02/05 15:47:27;;;;;;;3.33;1.00;;;20.30;37.80;;;;;;4917803;29;20072;-75
2022/02/05 15:49:54;;;;;;;5.03;1.00;;;20.50;37.10;;;;;;4916906;29;20128;-74
2022/02/05 15:52:21;;;;;;;6.80;1.48;;;20.40;37.10;;;;;;4917612;29;20139;-75
2022/02/05 15:54:50;;;;;;;4.28;1.13;;;20.50;37.10;;;;;;4917305;29;20087;-76
2022/02/05 15:57:32;;;;;;;3.65;1.20;;;20.20;37.20;;;;;;4916428;29;20100;-75
2022/02/05 16:00:04;;;;;;;4.60;1.30;;;19.70;37.10;;;;;;4903313;29;20135;-76
2022/02/05 16:02:32;;;;;;;2.90;1.00;;;18.70;37.50;;;;;;4916942;29;20056;-76
2022/02/05 16:04:59;;;;;;;3.00;1.10;;;17.60;38.50;;;;;;4917037;29;20532;-76
2022/02/05 16:07:26;;;;;;;2.80;0.80;;;16.80;40.10;;;;;;4917001;29;20048;-76
2022/02/05 16:09:53;;;;;;;3.83;1.02;;;16.20;40.50;;;;;;4916950;29;20139;-76
2022/02/05 16:12:21;;;;;;;3.70;1.20;;;15.50;41.70;;;;;;4916880;29;20060;-73
2022/02/05 16:14:48;;;;;;;3.30;1.10;;;15.00;42.70;;;;;;4916761;29;20072;-75
2022/02/05 16:17:15;;;;;;;4.57;1.42;;;14.30;43.50;;;;;;4917126;29;20044;-77
2022/02/05 16:19:42;;;;;;;4.63;1.40;;;13.50;44.90;;;;;;4916448;29;20139;-76
2022/02/05 16:22:09;;;;;;;3.38;1.42;;;12.70;46.50;;;;;;4916522;29;20131;-74
2022/02/05 16:24:37;;;;;;;5.97;1.83;;;12.00;48.10;;;;;;4916063;29;20131;-75
2022/02/05 16:27:04;;;;;;;3.85;1.48;;;11.30;49.40;;;;;;4916197;29;20112;-75
2022/02/05 16:29:33;;;;;;;5.78;1.98;;;10.70;50.80;;;;;;4915418;29;20056;-75
2022/02/05 16:32:01;;;;;;;5.50;2.28;;;10.20;52.20;;;;;;4900595;29;20429;-75
2022/02/05 16:34:30;;;;;;;7.55;2.88;;;10.10;53.30;;;;;;4919396;29;20044;-75
2022/02/05 16:36:59;;;;;;;5.18;1.70;;;9.50;54.90;;;;;;4920490;29;20056;-76
2022/02/05 16:39:28;;;;;;;5.15;1.77;;;9.20;55.40;;;;;;4917047;29;20136;-75
2022/02/05 16:41:56;;;;;;;4.50;1.63;;;8.90;56.30;;;;;;4905037;29;20046;-75
2022/02/05 16:44:23;;;;;;;6.22;1.80;;;8.70;57.20;;;;;;4920222;29;20123;-77
2022/02/05 16:46:55;;;;;;;6.32;1.67;;;8.50;58.40;;;;;;4920247;29;20076;-74
2022/02/05 16:49:24;;;;;;;3.35;1.27;;;8.30;58.50;;;;;;4919860;29;20441;-76
2022/02/05 16:51:52;;;;;;;5.45;1.60;;;8.20;59.10;;;;;;4920146;29;20052;-75
2022/02/05 16:54:20;;;;;;;6.38;1.73;;;8.10;59.50;;;;;;4919990;29;20054;-77
2022/02/05 16:56:47;;;;;;;6.40;2.10;;;7.90;59.90;;;;;;4920495;29;20135;-76
2022/02/05 16:59:14;;;;;;;6.13;1.58;;;7.90;60.50;;;;;;4920173;29;20059;-76
2022/02/05 17:01:42;;;;;;;8.85;3.60;;;7.80;60.90;;;;;;4919697;29;20062;-74
2022/02/05 17:04:13;;;;;;;13.40;7.70;;;7.70;61.30;;;;;;4919220;29;20055;-75
2022/02/05 17:06:41;;;;;;;10.52;5.25;;;7.60;61.70;;;;;;4919499;29;20056;-73
2022/02/05 17:09:08;;;;;;;7.30;2.80;;;7.60;62.00;;;;;;4920064;29;20135;-75
2022/02/05 17:11:36;;;;;;;5.50;1.75;;;7.50;62.40;;;;;;4918277;29;20107;-75
2022/02/05 17:14:04;;;;;;;5.35;1.48;;;7.50;62.80;;;;;;4913648;29;20052;-75
2022/02/05 17:16:31;;;;;;;5.18;1.50;;;7.40;63.10;;;;;;4919592;29;20048;-75
2022/02/05 17:18:59;;;;;;;4.20;1.27;;;7.40;63.30;;;;;;4919377;29;20043;-75
2022/02/05 17:21:27;;;;;;;4.70;1.70;;;7.30;63.80;;;;;;4919962;29;20040;-75
2022/02/05 17:23:55;;;;;;;4.68;1.50;;;7.30;64.80;;;;;;4919462;29;20634;-74
2022/02/05 17:26:26;;;;;;;5.65;1.83;;;7.20;64.80;;;;;;4919733;29;20143;-75
2022/02/05 17:28:53;;;;;;;4.43;1.33;;;7.20;65.20;;;;;;4919508;29;20127;-74
2022/02/05 17:31:21;;;;;;;4.47;1.45;;;7.20;65.70;;;;;;4919201;29;20051;-74
2022/02/05 17:33:49;;;;;;;4.38;1.67;;;7.20;66.00;;;;;;4914504;29;20417;-74
2022/02/05 17:36:19;;;;;;;6.00;2.05;;;7.10;67.00;;;;;;4918585;29;20561;-74
2022/02/05 17:38:49;;;;;;;6.15;2.60;;;7.10;67.00;;;;;;4913121;29;20109;-73
2022/02/05 17:41:17;;;;;;;7.75;3.53;;;7.10;67.50;;;;;;4913059;29;20454;-75
2022/02/05 17:43:46;;;;;;;8.43;3.90;;;7.00;68.00;;;;;;4917011;29;20061;-75
2022/02/05 17:46:13;;;;;;;8.60;3.00;;;6.90;68.30;;;;;;4911403;29;20044;-75
2022/02/05 17:48:40;;;;;;;7.07;2.17;;;6.90;69.00;;;;;;4918894;29;20135;-78
2022/02/05 17:51:08;;;;;;;5.55;2.08;;;6.90;69.70;;;;;;4919418;29;20052;-74
2022/02/05 17:53:36;;;;;;;6.10;2.08;;;6.80;70.30;;;;;;4919446;29;20052;-75
2022/02/05 17:56:06;;;;;;;6.97;2.13;;;6.70;71.10;;;;;;4918829;29;20054;-75
2022/02/05 17:58:36;;;;;;;5.60;2.08;;;6.60;71.80;;;;;;4919255;29;20059;-76
2022/02/05 18:01:04;;;;;;;6.57;1.95;;;6.60;72.50;;;;;;4918869;29;20060;-77
2022/02/05 18:03:32;;;;;;;5.88;2.30;;;6.60;73.40;;;;;;4919139;29;20131;-76
2022/02/05 18:06:06;;;;;;;6.05;2.35;;;6.50;74.10;;;;;;4918877;29;20040;-76
2022/02/05 18:08:42;;;;;;;6.20;2.60;;;6.50;74.90;;;;;;4918444;29;20074;-77
2022/02/05 18:11:17;;;;;;;4.78;2.03;;;6.40;75.80;;;;;;4919016;29;20130;-75
2022/02/05 18:16:40;;;;;;;5.95;2.30;;;6.30;77.20;;;;;;4860823;29;20061;-73
2022/02/05 18:19:07;;;;;;;8.98;4.32;;;6.20;77.80;;;;;;4904652;29;20052;-76
2022/02/05 18:21:34;;;;;;;13.10;6.55;;;6.20;78.40;;;;;;4918489;29;20055;-74
2022/02/05 18:24:02;;;;;;;9.10;3.78;;;6.20;78.80;;;;;;4918692;29;20135;-76
2022/02/05 18:26:31;;;;;;;8.63;3.00;;;6.10;79.20;;;;;;4918889;29;20058;-76
2022/02/05 18:28:58;;;;;;;6.55;2.25;;;6.10;79.60;;;;;;4918410;29;20487;-74
2022/02/05 18:31:26;;;;;;;7.03;2.30;;;6.10;79.80;;;;;;4918070;29;20048;-75
2022/02/05 18:33:53;;;;;;;5.45;2.25;;;6.00;80.10;;;;;;4916676;29;20457;-75
2022/02/05 18:36:20;;;;;;;5.75;2.35;;;6.00;80.40;;;;;;4917011;29;20483;-76
2022/02/05 18:38:47;;;;;;;6.32;2.40;;;6.00;80.60;;;;;;4917478;29;20052;-74
2022/02/05 18:41:21;;;;;;;7.30;2.47;;;6.00;81.00;;;;;;4918809;29;20127;-74
2022/02/05 18:43:51;;;;;;;5.47;2.15;;;6.00;81.20;;;;;;4918461;29;20055;-73
2022/02/05 18:46:18;;;;;;;6.82;2.47;;;5.90;81.60;;;;;;4918425;29;20048;-76
2022/02/05 18:48:45;;;;;;;7.93;2.63;;;5.90;82.30;;;;;;4917899;29;20131;-76
2022/02/05 18:51:12;;;;;;;5.68;2.03;;;6.00;84.40;;;;;;4914161;29;20142;-74
2022/02/05 18:53:39;;;;;;;5.13;2.00;;;6.00;83.90;;;;;;4900193;29;20052;-75
2022/02/05 18:56:06;;;;;;;5.63;2.05;;;6.10;82.70;;;;;;4909528;29;20079;-75
2022/02/05 18:58:35;;;;;;;7.68;2.45;;;6.00;82.50;;;;;;4918115;29;20127;-74
2022/02/05 19:01:11;;;;;;;7.75;2.58;;;6.00;82.70;;;;;;4916964;29;20092;-75
2022/02/05 19:04:08;;;;;;;5.45;2.15;;;6.00;82.80;;;;;;4917807;29;20119;-75
2022/02/05 19:15:08;;;;;;;6.15;2.15;;;5.90;84.70;;;;;;4897809;29;19923;-75
2022/02/05 19:20:21;;;;;;;7.57;2.13;;;5.80;85.30;;;;;;4916979;29;20127;-74
2022/02/05 19:22:48;;;;;;;7.38;1.75;;;5.80;85.80;;;;;;4916720;29;20127;-76
2022/02/05 19:25:15;;;;;;;4.93;1.92;;;5.80;86.20;;;;;;4917188;29;20139;-76
2022/02/05 19:27:42;;;;;;;5.78;1.92;;;5.80;86.90;;;;;;4917185;29;20052;-76
2022/02/05 19:30:11;;;;;;;7.93;2.55;;;5.70;87.40;;;;;;4917375;29;20498;-76
2022/02/05 19:32:39;;;;;;;6.03;2.00;;;5.70;87.80;;;;;;4917426;29;20138;-77
2022/02/05 19:35:08;;;;;;;6.28;2.13;;;5.70;88.40;;;;;;4917094;29;20052;-76
2022/02/05 19:37:35;;;;;;;7.53;2.22;;;5.70;88.80;;;;;;4915978;29;20063;-76
2022/02/05 19:40:04;;;;;;;5.93;1.92;;;5.70;89.20;;;;;;4915703;29;20064;-77
2022/02/05 19:42:32;;;;;;;6.55;2.10;;;5.70;89.60;;;;;;4916975;29;20135;-75
2022/02/05 19:45:03;;;;;;;6.57;2.22;;;5.60;90.00;;;;;;4916216;29;20107;-75
2022/02/05 19:47:39;;;;;;;4.85;2.17;;;5.60;90.10;;;;;;4917281;29;20056;-75
2022/02/05 19:50:09;;;;;;;4.70;1.85;;;5.70;90.30;;;;;;4917167;29;20048;-74
2022/02/05 19:52:37;;;;;;;6.28;1.92;;;5.60;90.30;;;;;;4916652;29;20052;-75
2022/02/05 19:55:05;;;;;;;5.97;2.15;;;5.60;90.50;;;;;;4917245;29;20058;-76
2022/02/05 19:57:33;;;;;;;6.30;1.98;;;5.60;90.60;;;;;;4916948;29;20127;-76
2022/02/05 20:00:05;;;;;;;5.90;2.10;;;5.60;90.60;;;;;;4916411;29;20074;-73
2022/02/05 20:02:35;;;;;;;8.02;2.47;;;5.50;90.70;;;;;;4908375;29;20140;-77
2022/02/05 20:05:08;;;;;;;4.22;2.03;;;5.50;90.70;;;;;;4899216;29;20060;-76
2022/02/05 20:07:49;;;;;;;5.90;2.22;;;5.50;90.70;;;;;;4916024;29;20048;-74
2022/02/05 20:10:16;;;;;;;6.97;2.72;;;5.50;90.80;;;;;;4917173;29;20363;-76
2022/02/05 20:12:43;;;;;;;7.80;2.90;;;5.50;90.80;;;;;;4915598;29;20494;-75
2022/02/05 20:15:11;;;;;;;6.80;2.60;;;5.50;90.80;;;;;;4916656;29;20139;-74